Time;durP1;ratioP1;P1;durP2;ratioP2;P2;SDS_P1;SDS_P2;PMS_P1;PMS_P2;Temp;Humidity;BMP_temperature;BMP_pressure;BME280_temperature;BME280_humidity;BME280_pressure;Samples;Min_cycle;Max_cycle;Signal;HPM_P1;HPM_P2
2024/01/24 00:02:07;;;;;;;11.10;3.78;;;11.70;99.90;;;;;;5138181;27;20810;-61
2024/01/24 00:04:33;;;;;;;21.90;4.75;;;11.70;99.90;;;;;;5141542;27;20078;-61
2024/01/24 00:06:59;;;;;;;21.08;4.25;;;11.70;99.90;;;;;;5141561;27;20034;-61
2024/01/24 00:09:24;;;;;;;21.35;3.90;;;11.80;99.90;;;;;;5139798;27;20088;-61
2024/01/24 00:11:50;;;;;;;17.75;3.75;;;11.70;99.90;;;;;;5135902;27;20038;-61
2024/01/24 00:14:16;;;;;;;18.52;3.45;;;11.80;99.90;;;;;;5141526;27;20040;-61
2024/01/24 00:16:42;;;;;;;15.63;3.28;;;11.70;99.90;;;;;;5141670;27;20498;-62
2024/01/24 00:19:08;;;;;;;22.92;4.57;;;12.00;99.90;;;;;;5144125;27;20042;-62
2024/01/24 00:21:33;;;;;;;17.02;3.67;;;11.80;99.90;;;;;;5143722;27;20078;-61
2024/01/24 00:23:59;;;;;;;25.33;4.53;;;11.60;99.90;;;;;;5142372;27;20134;-61
2024/01/24 00:26:25;;;;;;;19.85;4.38;;;11.80;99.90;;;;;;5139076;27;20506;-61
2024/01/24 00:28:50;;;;;;;24.08;4.63;;;11.80;99.90;;;;;;5137734;27;20048;-61
2024/01/24 00:31:16;;;;;;;17.75;3.30;;;11.80;99.90;;;;;;5141107;27;20038;-61
2024/01/24 00:33:42;;;;;;;20.02;4.38;;;11.60;99.90;;;;;;5140946;27;20043;-61
2024/01/24 00:36:08;;;;;;;15.60;4.05;;;11.60;99.90;;;;;;5139907;27;20035;-61
2024/01/24 00:38:33;;;;;;;22.45;4.88;;;11.60;99.90;;;;;;5144328;27;20049;-61
2024/01/24 00:40:59;;;;;;;22.65;4.55;;;11.60;99.90;;;;;;5142589;27;20146;-61
2024/01/24 00:43:25;;;;;;;19.88;4.40;;;11.70;99.90;;;;;;5139408;27;20728;-61
2024/01/24 00:45:51;;;;;;;27.75;4.72;;;11.60;99.90;;;;;;5141815;27;20066;-62
2024/01/24 00:48:17;;;;;;;31.38;5.40;;;11.60;99.90;;;;;;5143984;27;20918;-61
2024/01/24 00:50:43;;;;;;;21.40;4.97;;;11.80;99.90;;;;;;5141911;27;20042;-61
2024/01/24 00:53:15;;;;;;;27.25;4.22;;;11.60;99.90;;;;;;5138875;27;20200;-61
2024/01/24 00:55:41;;;;;;;19.17;3.95;;;11.70;99.90;;;;;;5141793;27;20657;-63
2024/01/24 00:58:07;;;;;;;18.95;3.97;;;11.70;99.90;;;;;;5140253;27;20571;-61
2024/01/24 01:00:33;;;;;;;16.30;3.55;;;11.60;99.90;;;;;;5140941;27;20051;-61
2024/01/24 01:02:58;;;;;;;17.90;3.72;;;11.70;99.90;;;;;;5138697;27;20030;-61
2024/01/24 01:05:24;;;;;;;25.88;6.03;;;11.80;99.90;;;;;;5140979;27;20410;-62
2024/01/24 01:07:50;;;;;;;25.13;4.13;;;11.70;99.90;;;;;;5144710;27;20041;-61
2024/01/24 01:10:16;;;;;;;21.13;4.28;;;11.80;99.90;;;;;;5137590;27;20043;-62
2024/01/24 01:12:42;;;;;;;24.05;4.70;;;11.60;99.90;;;;;;5119671;27;20452;-62
2024/01/24 01:15:08;;;;;;;19.63;4.13;;;11.70;99.90;;;;;;5140029;27;20547;-62
2024/01/24 01:17:35;;;;;;;17.65;3.50;;;11.60;99.90;;;;;;5135087;27;20039;-61
2024/01/24 01:20:00;;;;;;;16.33;3.47;;;11.50;99.90;;;;;;5133520;27;20038;-61
2024/01/24 01:22:26;;;;;;;12.77;3.13;;;11.50;99.90;;;;;;5134377;27;20037;-62
2024/01/24 01:24:52;;;;;;;24.05;3.67;;;11.50;99.90;;;;;;5134254;27;20505;-61
2024/01/24 01:27:18;;;;;;;21.52;3.47;;;11.60;99.90;;;;;;5137731;27;20058;-62
2024/01/24 01:29:43;;;;;;;21.48;3.65;;;11.60;99.90;;;;;;5137189;27;20125;-61
2024/01/24 01:32:09;;;;;;;18.17;3.50;;;11.70;99.90;;;;;;5136385;27;20049;-62
2024/01/24 01:34:35;;;;;;;20.95;3.08;;;11.80;99.90;;;;;;5136643;27;20524;-62
2024/01/24 01:37:01;;;;;;;17.17;3.10;;;11.90;99.90;;;;;;5136078;27;20647;-61
2024/01/24 01:39:28;;;;;;;19.38;3.63;;;11.90;99.90;;;;;;5137099;27;20092;-62
2024/01/24 01:41:54;;;;;;;15.90;2.85;;;11.80;99.90;;;;;;5136712;27;20666;-61
2024/01/24 01:44:19;;;;;;;20.20;3.75;;;11.80;99.90;;;;;;5116659;27;20059;-62
2024/01/24 01:46:45;;;;;;;23.98;3.83;;;12.00;99.90;;;;;;5137219;27;20087;-62
2024/01/24 01:49:12;;;;;;;13.68;3.67;;;11.90;99.90;;;;;;5135377;27;20062;-62
2024/01/24 01:51:38;;;;;;;10.02;2.45;;;12.00;99.90;;;;;;5136906;27;20034;-62
2024/01/24 01:54:06;;;;;;;19.02;3.25;;;12.00;99.90;;;;;;5117287;27;20052;-61
2024/01/24 01:56:32;;;;;;;13.00;3.00;;;12.00;99.90;;;;;;5136972;27;20035;-62
2024/01/24 01:58:58;;;;;;;14.93;2.97;;;11.80;99.90;;;;;;5134870;27;20462;-62
2024/01/24 02:01:25;;;;;;;9.35;2.03;;;12.10;99.90;;;;;;5135910;27;20520;-62
2024/01/24 02:03:51;;;;;;;9.18;2.35;;;12.20;99.90;;;;;;5133714;27;20042;-62
2024/01/24 02:06:17;;;;;;;15.48;2.60;;;12.10;99.90;;;;;;5136505;27;20042;-62
2024/01/24 02:08:44;;;;;;;13.07;3.47;;;12.10;99.90;;;;;;5136253;27;20049;-62
2024/01/24 02:11:10;;;;;;;11.70;2.78;;;12.10;99.90;;;;;;5116484;27;20130;-62
2024/01/24 02:13:36;;;;;;;15.10;2.50;;;12.20;99.90;;;;;;5135639;27;20051;-62
2024/01/24 02:16:05;;;;;;;11.38;2.08;;;12.20;99.90;;;;;;5135680;27;20046;-62
2024/01/24 02:18:31;;;;;;;17.35;2.40;;;12.20;99.90;;;;;;5135497;27;20456;-61
2024/01/24 02:20:57;;;;;;;17.25;2.75;;;12.30;99.90;;;;;;5134703;27;20530;-62
2024/01/24 02:23:25;;;;;;;11.32;1.95;;;12.30;99.90;;;;;;5136313;27;20233;-62
2024/01/24 02:25:52;;;;;;;14.13;2.42;;;12.20;99.90;;;;;;5135796;27;20031;-62
2024/01/24 02:28:18;;;;;;;9.38;2.58;;;12.40;99.90;;;;;;5135435;27;20402;-62
2024/01/24 02:30:44;;;;;;;12.60;2.97;;;12.40;99.90;;;;;;5135515;27;20669;-62
2024/01/24 02:33:10;;;;;;;13.43;2.80;;;12.30;99.90;;;;;;5134913;27;20058;-63
2024/01/24 02:35:36;;;;;;;13.75;2.47;;;12.30;99.90;;;;;;5098855;27;20046;-63
2024/01/24 02:38:02;;;;;;;11.40;2.70;;;12.40;99.90;;;;;;5136422;27;20031;-62
2024/01/24 02:40:27;;;;;;;9.30;2.28;;;12.40;99.90;;;;;;5135065;27;20043;-62
2024/01/24 02:42:53;;;;;;;15.02;2.65;;;12.30;99.90;;;;;;5135694;27;20069;-65
2024/01/24 02:45:19;;;;;;;12.82;2.63;;;12.40;99.90;;;;;;5135687;27;20114;-62
2024/01/24 02:47:45;;;;;;;14.05;3.28;;;12.40;99.90;;;;;;5135130;27;20061;-63
2024/01/24 02:50:12;;;;;;;12.70;2.90;;;12.40;99.90;;;;;;5135855;27;20054;-62
2024/01/24 02:52:38;;;;;;;12.40;2.25;;;12.50;99.90;;;;;;5136191;27;20494;-63
2024/01/24 02:55:07;;;;;;;16.60;2.97;;;12.50;99.90;;;;;;5135754;27;20039;-63
2024/01/24 02:57:33;;;;;;;12.25;2.03;;;12.50;99.90;;;;;;5135663;27;20031;-63
2024/01/24 02:59:58;;;;;;;7.65;2.50;;;12.40;99.90;;;;;;5135126;27;20031;-65
2024/01/24 03:02:24;;;;;;;13.68;3.35;;;12.40;99.90;;;;;;5134395;27;20448;-63
2024/01/24 03:04:50;;;;;;;13.32;2.72;;;12.40;99.90;;;;;;5136184;27;20054;-63
2024/01/24 03:07:16;;;;;;;11.27;2.67;;;12.30;99.90;;;;;;5135051;27;20447;-63
2024/01/24 03:09:41;;;;;;;20.85;3.15;;;12.30;99.90;;;;;;5135336;27;20478;-64
2024/01/24 03:12:07;;;;;;;15.07;3.20;;;12.30;99.90;;;;;;5134045;27;20034;-64
2024/01/24 03:14:33;;;;;;;10.85;3.08;;;12.30;99.90;;;;;;5133708;27;21110;-64
2024/01/24 03:16:59;;;;;;;14.00;3.42;;;12.20;99.90;;;;;;5134456;27;20042;-63
2024/01/24 03:19:24;;;;;;;13.52;3.17;;;12.20;99.90;;;;;;5135000;27;20574;-63
2024/01/24 03:21:50;;;;;;;13.63;2.75;;;12.10;99.90;;;;;;5133690;27;20047;-64
2024/01/24 03:24:17;;;;;;;19.23;4.72;;;12.00;99.90;;;;;;5134987;27;20814;-64
2024/01/24 03:26:43;;;;;;;18.50;3.58;;;12.00;99.90;;;;;;5117923;27;20482;-63
2024/01/24 03:29:08;;;;;;;19.67;3.75;;;12.00;99.90;;;;;;5139149;27;20034;-64
2024/01/24 03:31:34;;;;;;;17.17;3.78;;;11.90;99.90;;;;;;5137676;27;20162;-64
2024/01/24 03:34:00;;;;;;;25.92;4.40;;;11.90;99.90;;;;;;5139120;27;20043;-63
2024/01/24 03:36:26;;;;;;;27.88;4.53;;;11.80;99.90;;;;;;5136935;27;20096;-63
2024/01/24 03:38:52;;;;;;;17.55;3.70;;;11.80;99.90;;;;;;5120272;27;20042;-64
2024/01/24 03:41:18;;;;;;;19.63;5.00;;;12.00;99.90;;;;;;5138054;27;20039;-64
2024/01/24 03:43:44;;;;;;;19.40;4.00;;;11.90;99.90;;;;;;5137305;27;20521;-64
2024/01/24 03:46:10;;;;;;;20.92;4.30;;;11.80;99.90;;;;;;5138137;27;20026;-64
2024/01/24 03:48:35;;;;;;;24.25;4.40;;;11.90;99.90;;;;;;5139071;27;20060;-63
2024/01/24 03:51:01;;;;;;;19.20;4.95;;;11.80;99.90;;;;;;5138715;27;20043;-64
2024/01/24 03:53:27;;;;;;;22.70;4.32;;;11.90;99.90;;;;;;5139418;27;20839;-64
2024/01/24 03:55:52;;;;;;;19.50;4.32;;;12.00;99.90;;;;;;5138860;27;20030;-64
2024/01/24 03:58:18;;;;;;;29.02;5.65;;;12.00;99.90;;;;;;5138100;27;20513;-64
2024/01/24 04:00:44;;;;;;;30.10;6.22;;;11.90;99.90;;;;;;5138115;27;20038;-65
2024/01/24 04:03:10;;;;;;;25.95;5.45;;;11.90;99.90;;;;;;5138599;27;20155;-64
2024/01/24 04:05:36;;;;;;;19.25;4.93;;;12.00;99.90;;;;;;5139014;27;20034;-64
2024/01/24 04:08:02;;;;;;;19.17;4.22;;;12.00;99.90;;;;;;5138670;27;20035;-64
2024/01/24 04:10:28;;;;;;;23.50;5.18;;;12.00;99.90;;;;;;5139366;27;20141;-64
2024/01/24 04:12:54;;;;;;;27.85;4.65;;;12.00;99.90;;;;;;5118229;27;20495;-64
2024/01/24 04:15:19;;;;;;;23.08;5.20;;;12.00;99.90;;;;;;5137885;27;20075;-64
2024/01/24 04:17:45;;;;;;;31.13;4.93;;;12.00;99.90;;;;;;5136737;27;20042;-64
2024/01/24 04:20:11;;;;;;;22.83;5.10;;;11.80;99.90;;;;;;5138548;27;20145;-65
2024/01/24 04:22:37;;;;;;;20.50;5.03;;;11.70;99.90;;;;;;5138183;27;20037;-64
2024/01/24 04:25:03;;;;;;;21.98;4.63;;;11.60;99.90;;;;;;5137991;27;20035;-64
2024/01/24 04:27:29;;;;;;;29.75;5.40;;;11.50;99.90;;;;;;5137193;27;20030;-65
2024/01/24 04:29:55;;;;;;;26.05;5.93;;;11.60;99.90;;;;;;5138812;27;21217;-66
2024/01/24 04:32:20;;;;;;;25.55;5.07;;;11.50;99.90;;;;;;5139239;27;20038;-65
2024/01/24 04:34:46;;;;;;;21.70;5.20;;;11.40;99.90;;;;;;5137550;27;20064;-65
2024/01/24 04:37:12;;;;;;;25.52;5.15;;;11.40;99.90;;;;;;5138186;27;20035;-65
2024/01/24 04:39:37;;;;;;;25.15;6.90;;;11.40;99.90;;;;;;5136669;27;20038;-65
2024/01/24 04:42:06;;;;;;;29.25;5.40;;;11.30;99.90;;;;;;5118977;27;20168;-65
2024/01/24 04:44:33;;;;;;;24.80;5.88;;;11.30;99.90;;;;;;5115905;27;20820;-65
2024/01/24 04:46:59;;;;;;;33.65;5.25;;;11.30;99.90;;;;;;5138606;27;20126;-64
2024/01/24 04:49:25;;;;;;;23.90;5.20;;;11.30;99.90;;;;;;5137489;27;20043;-65
2024/01/24 04:51:50;;;;;;;26.20;6.57;;;11.30;99.90;;;;;;5119612;27;20046;-65
2024/01/24 04:54:16;;;;;;;35.03;6.40;;;11.30;99.90;;;;;;5119628;27;20052;-65
2024/01/24 04:56:46;;;;;;;26.10;5.90;;;11.30;99.90;;;;;;5138265;27;20444;-65
2024/01/24 04:59:17;;;;;;;32.70;5.57;;;11.30;99.90;;;;;;5139358;27;20042;-65
2024/01/24 05:01:43;;;;;;;30.23;6.03;;;11.30;99.90;;;;;;5137851;27;20038;-66
2024/01/24 05:04:09;;;;;;;27.48;5.53;;;11.30;99.90;;;;;;5121158;27;20130;-65
2024/01/24 05:06:35;;;;;;;29.40;5.63;;;11.40;99.90;;;;;;5137823;27;20693;-65
2024/01/24 05:09:02;;;;;;;37.88;6.72;;;11.40;99.90;;;;;;5138855;27;20413;-65
2024/01/24 05:11:28;;;;;;;35.88;5.93;;;11.30;99.90;;;;;;5138934;27;20046;-66
2024/01/24 05:13:55;;;;;;;34.22;6.32;;;11.30;99.90;;;;;;5138232;27;20047;-65
2024/01/24 05:16:21;;;;;;;36.90;7.07;;;11.20;99.90;;;;;;5121184;27;20031;-65
2024/01/24 05:18:47;;;;;;;31.33;7.25;;;11.20;99.90;;;;;;5138981;27;20073;-65
2024/01/24 05:21:13;;;;;;;36.25;6.70;;;11.20;99.90;;;;;;5140666;27;20049;-66
2024/01/24 05:23:38;;;;;;;33.63;6.78;;;11.20;99.90;;;;;;5118373;27;20578;-66
2024/01/24 05:26:04;;;;;;;36.55;6.55;;;11.30;99.90;;;;;;5119226;27;20372;-65
2024/01/24 05:28:30;;;;;;;37.10;7.50;;;11.30;99.90;;;;;;5135832;27;20026;-67
2024/01/24 05:30:56;;;;;;;38.55;7.60;;;11.30;99.90;;;;;;5136674;27;20517;-66
2024/01/24 05:33:23;;;;;;;37.83;8.60;;;11.30;99.90;;;;;;5103182;27;20034;-66
2024/01/24 05:35:49;;;;;;;36.17;6.93;;;11.30;99.90;;;;;;5117142;27;20043;-66
2024/01/24 05:38:14;;;;;;;38.25;6.65;;;11.30;99.90;;;;;;5116905;27;20045;-66
2024/01/24 05:40:40;;;;;;;39.75;8.85;;;11.30;99.90;;;;;;5135819;27;20416;-66
2024/01/24 05:43:06;;;;;;;41.80;7.97;;;11.30;99.90;;;;;;5135809;27;20272;-67
2024/01/24 05:45:32;;;;;;;34.35;7.28;;;11.30;99.90;;;;;;5118587;27;20458;-68
2024/01/24 05:47:58;;;;;;;31.42;6.07;;;11.30;99.90;;;;;;5137839;27;20073;-67
2024/01/24 05:50:23;;;;;;;35.83;6.70;;;11.30;99.90;;;;;;5100356;27;20049;-68
2024/01/24 05:52:49;;;;;;;33.28;6.68;;;11.30;99.90;;;;;;5136417;27;20909;-68
2024/01/24 05:55:15;;;;;;;38.00;8.30;;;11.10;99.90;;;;;;5117198;27;20074;-68
2024/01/24 05:57:41;;;;;;;35.50;6.55;;;11.10;99.90;;;;;;5136227;27;20090;-68
2024/01/24 06:00:14;;;;;;;46.95;8.88;;;11.10;99.90;;;;;;5138405;27;20122;-68
2024/01/24 06:02:41;;;;;;;39.55;7.85;;;11.10;99.90;;;;;;5135177;27;20039;-68
2024/01/24 06:05:10;;;;;;;33.72;6.70;;;11.10;99.90;;;;;;5117016;27;20514;-66
2024/01/24 06:07:36;;;;;;;39.05;6.53;;;11.10;99.90;;;;;;5135263;27;20078;-66
2024/01/24 06:10:02;;;;;;;37.50;7.55;;;11.10;99.90;;;;;;5115222;27;20046;-66
2024/01/24 06:12:28;;;;;;;33.00;6.95;;;11.10;99.90;;;;;;5115497;27;20046;-65
2024/01/24 06:14:57;;;;;;;37.38;8.30;;;11.00;99.90;;;;;;5138744;27;20070;-66
2024/01/24 06:17:22;;;;;;;37.72;7.22;;;11.00;99.90;;;;;;5116497;27;20047;-66
2024/01/24 06:19:52;;;;;;;43.28;7.82;;;11.00;99.90;;;;;;5139008;27;20048;-68
2024/01/24 06:22:18;;;;;;;33.78;7.43;;;11.00;99.90;;;;;;5135312;27;20047;-68
2024/01/24 06:24:44;;;;;;;40.83;7.75;;;11.10;99.90;;;;;;5135296;27;20031;-68
2024/01/24 06:27:11;;;;;;;37.72;7.75;;;11.10;99.90;;;;;;5136043;27;20376;-68
2024/01/24 06:29:37;;;;;;;37.63;8.60;;;11.00;99.90;;;;;;5134278;27;20207;-68
2024/01/24 06:32:02;;;;;;;39.78;8.55;;;10.90;99.90;;;;;;5135082;27;20039;-68
2024/01/24 06:34:28;;;;;;;34.70;8.52;;;10.90;99.90;;;;;;5114477;27;20126;-67
2024/01/24 06:36:54;;;;;;;53.72;8.88;;;10.90;99.90;;;;;;5135385;27;20034;-68
2024/01/24 06:39:20;;;;;;;36.75;8.32;;;10.80;99.90;;;;;;5117001;27;20046;-68
2024/01/24 06:41:45;;;;;;;42.42;8.05;;;10.70;99.90;;;;;;5135400;27;20038;-68
2024/01/24 06:44:11;;;;;;;41.40;8.93;;;10.70;99.90;;;;;;5135925;27;20050;-68
2024/01/24 06:46:42;;;;;;;40.58;8.15;;;10.80;99.90;;;;;;5115285;27;20073;-67
2024/01/24 06:49:10;;;;;;;42.10;9.15;;;10.70;99.90;;;;;;5136016;27;20447;-69
2024/01/24 06:51:37;;;;;;;36.75;6.60;;;10.70;99.90;;;;;;5115447;27;20050;-68
2024/01/24 06:54:06;;;;;;;36.03;7.47;;;10.70;99.90;;;;;;5136889;27;20058;-68
2024/01/24 06:56:32;;;;;;;45.95;8.18;;;10.60;99.90;;;;;;5135715;27;20050;-67
2024/01/24 06:58:58;;;;;;;40.60;8.35;;;10.60;99.90;;;;;;5135469;27;20070;-67
2024/01/24 07:01:24;;;;;;;47.67;9.25;;;10.60;99.90;;;;;;5138312;27;20129;-68
2024/01/24 07:03:49;;;;;;;40.88;7.75;;;10.50;99.90;;;;;;5140036;27;20348;-68
2024/01/24 07:06:15;;;;;;;35.42;7.22;;;10.50;99.90;;;;;;5138527;27;20031;-67
2024/01/24 07:08:41;;;;;;;48.58;7.93;;;10.50;99.90;;;;;;5120067;27;20042;-67
2024/01/24 07:11:07;;;;;;;37.90;7.00;;;10.60;99.90;;;;;;5120121;27;20074;-67
2024/01/24 07:13:33;;;;;;;39.38;8.40;;;10.50;99.90;;;;;;5119520;27;20072;-66
2024/01/24 07:16:04;;;;;;;33.25;7.88;;;10.60;99.90;;;;;;5138766;27;20042;-67
2024/01/24 07:18:33;;;;;;;37.20;7.70;;;10.60;99.90;;;;;;5131919;27;20134;-67
2024/01/24 07:21:00;;;;;;;38.78;7.80;;;10.60;99.90;;;;;;5139266;27;20046;-65
2024/01/24 07:23:26;;;;;;;34.42;7.78;;;10.60;99.90;;;;;;5139107;27;20074;-64
2024/01/24 07:25:51;;;;;;;40.00;7.82;;;10.70;99.90;;;;;;5139782;27;20451;-64
2024/01/24 07:28:18;;;;;;;41.00;7.55;;;10.60;99.90;;;;;;5140657;27;20039;-64
2024/01/24 07:30:44;;;;;;;40.17;7.55;;;10.70;99.90;;;;;;5122845;27;20119;-64
2024/01/24 07:33:10;;;;;;;36.65;7.70;;;10.60;99.90;;;;;;5124168;27;20047;-65
2024/01/24 07:35:36;;;;;;;39.60;7.82;;;10.60;99.90;;;;;;5139589;27;20388;-65
2024/01/24 07:38:01;;;;;;;36.42;7.72;;;10.60;99.90;;;;;;5142285;27;20119;-65
2024/01/24 07:40:27;;;;;;;30.60;6.97;;;10.60;99.90;;;;;;5123822;27;20043;-64
2024/01/24 07:42:53;;;;;;;42.42;7.75;;;10.50;99.90;;;;;;5141194;27;20058;-64
2024/01/24 07:45:19;;;;;;;41.08;8.48;;;10.50;99.90;;;;;;5119895;27;20065;-64
2024/01/24 07:47:45;;;;;;;50.03;8.95;;;10.50;99.90;;;;;;5142586;27;20070;-64
2024/01/24 07:50:13;;;;;;;45.05;8.70;;;10.50;99.90;;;;;;5138468;27;20039;-63
2024/01/24 07:52:39;;;;;;;36.45;7.47;;;10.50;99.90;;;;;;5144801;27;20046;-63
2024/01/24 07:55:05;;;;;;;41.75;9.23;;;10.50;99.90;;;;;;5147796;27;20570;-64
2024/01/24 07:57:31;;;;;;;36.83;7.80;;;10.50;99.90;;;;;;5144031;27;20145;-64
2024/01/24 07:59:58;;;;;;;43.35;7.78;;;10.50;99.90;;;;;;5147770;27;20501;-64
2024/01/24 08:02:23;;;;;;;42.65;8.57;;;10.40;99.90;;;;;;5141301;27;20041;-64
2024/01/24 08:04:49;;;;;;;33.15;7.45;;;10.50;99.90;;;;;;5147100;27;20034;-64
2024/01/24 08:07:15;;;;;;;32.65;7.40;;;10.50;99.90;;;;;;5141468;27;20035;-64
2024/01/24 08:09:41;;;;;;;41.15;7.68;;;10.50;99.90;;;;;;5147959;27;20516;-64
2024/01/24 08:12:07;;;;;;;47.63;8.57;;;10.50;99.90;;;;;;5146533;27;20046;-65
2024/01/24 08:14:33;;;;;;;44.60;8.50;;;10.50;99.90;;;;;;5124226;27;20133;-64
2024/01/24 08:17:00;;;;;;;53.10;8.02;;;10.90;99.90;;;;;;5146073;27;20203;-64
2024/01/24 08:19:26;;;;;;;40.00;8.13;;;10.50;99.90;;;;;;5139426;27;20055;-63
2024/01/24 08:21:51;;;;;;;38.33;7.35;;;10.50;99.90;;;;;;5147059;27;20434;-64
2024/01/24 08:24:17;;;;;;;40.08;6.93;;;10.50;99.90;;;;;;5138616;27;20646;-63
2024/01/24 08:26:43;;;;;;;37.80;7.47;;;10.50;99.90;;;;;;5140181;27;20126;-64
2024/01/24 08:29:09;;;;;;;41.67;8.20;;;10.50;99.90;;;;;;5134268;27;20034;-65
2024/01/24 08:31:34;;;;;;;51.67;9.00;;;10.40;99.90;;;;;;5119002;27;20589;-64
2024/01/24 08:34:00;;;;;;;40.22;8.57;;;10.50;99.90;;;;;;5146823;27;20082;-64
2024/01/24 08:36:26;;;;;;;42.72;7.70;;;10.50;99.90;;;;;;5121137;27;20110;-64
2024/01/24 08:38:51;;;;;;;44.20;8.05;;;10.40;99.90;;;;;;5142843;27;20086;-64
2024/01/24 08:41:17;;;;;;;39.97;9.18;;;10.40;99.90;;;;;;5125755;27;20073;-64
2024/01/24 08:43:43;;;;;;;34.72;7.90;;;10.40;99.90;;;;;;5142845;27;20038;-65
2024/01/24 08:46:09;;;;;;;45.72;8.65;;;10.40;99.90;;;;;;5139447;27;20044;-64
2024/01/24 08:48:34;;;;;;;34.40;7.53;;;10.40;99.90;;;;;;5139976;27;20098;-64
2024/01/24 08:51:00;;;;;;;36.85;9.38;;;10.40;99.90;;;;;;5138510;27;20368;-63
2024/01/24 08:53:26;;;;;;;36.65;7.43;;;10.40;99.90;;;;;;5142976;27;20042;-64
2024/01/24 08:55:51;;;;;;;38.05;7.97;;;10.50;99.90;;;;;;5139243;27;20497;-64
2024/01/24 08:58:17;;;;;;;36.35;7.63;;;10.50;99.90;;;;;;5137037;27;20133;-64
2024/01/24 09:00:44;;;;;;;35.30;7.07;;;10.50;99.90;;;;;;5141399;27;20065;-64
2024/01/24 09:03:11;;;;;;;41.28;7.50;;;10.50;99.90;;;;;;5138782;27;20047;-64
2024/01/24 09:05:36;;;;;;;43.50;10.70;;;10.60;99.90;;;;;;5140779;27;20662;-63
2024/01/24 09:08:02;;;;;;;33.58;8.07;;;10.60;99.90;;;;;;5134844;27;20049;-65
2024/01/24 09:10:28;;;;;;;44.70;7.82;;;10.60;99.90;;;;;;5137298;27;20039;-64
2024/01/24 09:12:54;;;;;;;40.53;8.57;;;10.70;99.90;;;;;;5139851;27;20533;-64
2024/01/24 09:15:20;;;;;;;39.28;7.93;;;10.60;99.90;;;;;;5141821;27;20099;-64
2024/01/24 09:17:46;;;;;;;41.88;8.05;;;10.60;99.90;;;;;;5137809;27;20070;-64
2024/01/24 09:20:12;;;;;;;38.55;9.48;;;10.60;99.90;;;;;;5142015;27;20034;-64
2024/01/24 09:22:39;;;;;;;39.47;7.88;;;10.70;99.90;;;;;;5138964;27;20037;-64
2024/01/24 09:25:05;;;;;;;37.22;7.95;;;10.60;99.90;;;;;;5141171;27;20573;-64
2024/01/24 09:27:31;;;;;;;39.45;6.60;;;10.70;99.90;;;;;;5140266;27;20439;-64
2024/01/24 09:29:57;;;;;;;45.80;7.10;;;10.70;99.90;;;;;;5143237;27;20041;-64
2024/01/24 09:32:23;;;;;;;41.38;7.07;;;10.70;99.90;;;;;;5127074;27;20042;-63
2024/01/24 09:34:49;;;;;;;43.70;8.18;;;10.80;99.90;;;;;;5139239;27;20070;-64
2024/01/24 09:37:15;;;;;;;34.30;7.90;;;10.80;99.90;;;;;;5141004;27;20496;-64
2024/01/24 09:39:41;;;;;;;37.28;7.13;;;10.80;99.90;;;;;;5139992;27;20046;-64
2024/01/24 09:42:18;;;;;;;35.85;7.70;;;10.80;99.90;;;;;;5125286;27;20082;-64
2024/01/24 09:44:48;;;;;;;36.58;6.95;;;10.90;99.90;;;;;;5139433;27;20042;-64
2024/01/24 09:47:16;;;;;;;37.45;7.72;;;10.80;99.90;;;;;;5141922;27;20030;-64
2024/01/24 09:49:46;;;;;;;34.83;7.18;;;10.90;99.90;;;;;;5143575;27;20051;-64
2024/01/24 09:52:23;;;;;;;42.83;8.25;;;10.90;99.90;;;;;;5118586;27;20086;-63
2024/01/24 09:55:04;;;;;;;37.75;8.13;;;10.90;99.90;;;;;;5134620;27;20506;-63
2024/01/24 09:57:32;;;;;;;38.45;7.55;;;10.90;99.90;;;;;;5140936;27;20038;-64
2024/01/24 09:59:58;;;;;;;32.47;7.33;;;10.90;99.90;;;;;;5141933;27;20074;-63
2024/01/24 10:02:27;;;;;;;38.10;7.28;;;10.90;99.90;;;;;;5131972;27;20364;-64
2024/01/24 10:04:54;;;;;;;33.75;8.13;;;10.90;99.90;;;;;;5134512;27;20071;-63
2024/01/24 10:07:20;;;;;;;37.28;7.78;;;11.00;99.90;;;;;;5115106;27;20087;-64
2024/01/24 10:09:47;;;;;;;35.55;7.07;;;11.10;99.90;;;;;;5137876;27;20064;-64
2024/01/24 10:12:13;;;;;;;41.92;7.32;;;11.10;99.90;;;;;;5136529;27;20046;-63
2024/01/24 10:14:43;;;;;;;38.13;8.93;;;11.00;99.90;;;;;;5137979;27;21349;-63
2024/01/24 10:17:11;;;;;;;;;;;11.10;99.90;;;;;;5136030;27;20047;-63
2024/01/24 10:19:37;;;;;;;36.58;6.78;;;11.10;99.90;;;;;;5135805;27;20296;-63
2024/01/24 10:22:03;;;;;;;41.38;6.93;;;11.20;99.90;;;;;;5134293;27;20193;-65
2024/01/24 10:24:31;;;;;;;42.85;8.30;;;11.20;99.90;;;;;;5135555;27;20091;-63
2024/01/24 10:26:57;;;;;;;33.13;7.25;;;11.20;99.90;;;;;;5138523;27;20034;-62
2024/01/24 10:29:23;;;;;;;35.90;7.03;;;11.30;99.90;;;;;;5136923;27;20414;-63
2024/01/24 10:31:55;;;;;;;42.78;7.85;;;11.40;99.90;;;;;;5133450;27;20043;-63
2024/01/24 10:34:25;;;;;;;41.05;8.52;;;11.40;99.90;;;;;;5134029;27;20049;-63
2024/01/24 10:36:52;;;;;;;36.78;7.57;;;11.40;99.90;;;;;;5136094;27;20121;-63
2024/01/24 10:39:18;;;;;;;52.42;9.35;;;11.40;99.90;;;;;;5134434;27;20047;-63
2024/01/24 10:41:51;;;;;;;38.47;7.75;;;11.50;99.90;;;;;;5136592;27;20456;-63
2024/01/24 10:44:20;;;;;;;36.13;6.90;;;11.40;99.90;;;;;;5132237;27;20035;-63
2024/01/24 10:46:50;;;;;;;41.22;7.30;;;11.30;99.90;;;;;;5137377;27;20031;-66
2024/01/24 10:49:16;;;;;;;36.30;8.30;;;11.30;99.90;;;;;;5134731;27;20043;-62
2024/01/24 10:51:43;;;;;;;36.47;6.70;;;11.20;99.90;;;;;;5136749;27;20384;-63
2024/01/24 10:54:11;;;;;;;40.20;8.05;;;11.20;99.90;;;;;;5120256;27;20035;-63
2024/01/24 10:56:38;;;;;;;37.53;7.45;;;11.20;99.90;;;;;;5133188;27;20042;-63
2024/01/24 10:59:05;;;;;;;36.45;7.47;;;11.20;99.90;;;;;;5144254;27;20529;-64
2024/01/24 11:01:31;;;;;;;31.45;6.43;;;11.20;99.90;;;;;;5145174;27;20043;-62
2024/01/24 11:03:58;;;;;;;39.08;7.03;;;11.20;99.90;;;;;;5132118;27;20075;-63
2024/01/24 11:06:27;;;;;;;36.25;7.25;;;11.30;99.90;;;;;;5143252;27;20119;-63
2024/01/24 11:09:12;;;;;;;35.78;6.72;;;11.30;99.90;;;;;;5136585;27;20159;-63
2024/01/24 11:11:40;;;;;;;36.78;7.00;;;11.30;99.90;;;;;;5135516;27;20094;-64
2024/01/24 11:14:09;;;;;;;29.67;6.75;;;11.30;99.90;;;;;;5117673;27;20118;-63
2024/01/24 11:16:39;;;;;;;32.47;8.18;;;11.30;99.90;;;;;;5132385;27;20466;-63
2024/01/24 11:19:22;;;;;;;32.38;6.95;;;11.20;99.90;;;;;;5138446;27;20326;-64
2024/01/24 11:21:50;;;;;;;32.22;7.15;;;11.30;99.90;;;;;;5134916;27;20108;-64
2024/01/24 11:24:42;;;;;;;29.13;7.60;;;11.20;99.90;;;;;;5137404;27;20114;-63
2024/01/24 11:27:26;;;;;;;34.30;7.90;;;11.20;99.90;;;;;;5133375;27;20610;-63
2024/01/24 11:29:52;;;;;;;40.28;7.65;;;11.10;99.90;;;;;;5138201;27;20039;-63
2024/01/24 11:32:57;;;;;;;40.55;7.65;;;11.20;99.90;;;;;;5144900;27;20039;-62
2024/01/24 11:35:42;;;;;;;33.05;7.13;;;11.20;99.90;;;;;;5059434;28;20078;-63
2024/01/24 11:38:17;;;;;;;32.28;6.80;;;11.10;99.90;;;;;;5132958;27;20054;-63
2024/01/24 11:40:47;;;;;;;34.22;7.00;;;11.10;99.90;;;;;;5134040;27;20084;-63
2024/01/24 11:43:32;;;;;;;41.75;7.70;;;10.70;99.90;;;;;;5128837;27;20503;-64
2024/01/24 11:46:03;;;;;;;41.38;6.53;;;11.10;99.90;;;;;;5134266;27;20039;-64
2024/01/24 11:48:31;;;;;;;37.72;6.65;;;11.10;99.90;;;;;;5133580;27;20035;-63
2024/01/24 11:51:02;;;;;;;36.43;7.40;;;11.10;99.90;;;;;;5130457;27;20505;-63
2024/01/24 11:53:28;;;;;;;35.45;7.07;;;11.10;99.90;;;;;;5134929;27;20031;-63
2024/01/24 11:56:02;;;;;;;38.78;7.50;;;11.10;99.90;;;;;;5131559;27;20307;-63
2024/01/24 11:58:29;;;;;;;31.63;5.80;;;11.10;99.90;;;;;;5130056;27;20035;-63
2024/01/24 12:01:01;;;;;;;36.25;6.55;;;11.10;99.90;;;;;;5132579;27;20111;-63
2024/01/24 12:03:27;;;;;;;31.95;6.70;;;11.00;99.90;;;;;;5138726;27;20090;-63
2024/01/24 12:05:52;;;;;;;34.42;6.40;;;11.00;99.90;;;;;;5142221;27;20067;-63
2024/01/24 12:08:19;;;;;;;42.95;7.28;;;11.00;99.90;;;;;;5141388;27;20030;-64
2024/01/24 12:10:45;;;;;;;30.27;7.63;;;11.00;99.90;;;;;;5139982;27;20475;-62
2024/01/24 12:13:13;;;;;;;33.30;7.18;;;11.10;99.90;;;;;;5142357;27;20023;-63
2024/01/24 12:15:39;;;;;;;31.73;6.65;;;11.10;99.90;;;;;;5134694;27;20035;-64
2024/01/24 12:18:16;;;;;;;23.73;6.72;;;11.00;99.90;;;;;;5133952;27;20033;-64
2024/01/24 12:20:50;;;;;;;39.13;7.35;;;11.10;99.90;;;;;;5145530;27;20046;-63
2024/01/24 12:23:16;;;;;;;40.88;7.90;;;11.10;99.90;;;;;;5133210;27;20107;-63
2024/01/24 12:25:43;;;;;;;36.70;8.05;;;11.10;99.90;;;;;;5134448;27;20493;-63
2024/01/24 12:28:10;;;;;;;34.63;6.43;;;11.10;99.90;;;;;;5131959;27;20398;-63
2024/01/24 12:30:36;;;;;;;30.48;7.20;;;11.10;99.90;;;;;;5130236;27;20038;-63
2024/01/24 12:33:03;;;;;;;35.03;7.10;;;11.30;99.90;;;;;;5129077;27;20031;-63
2024/01/24 12:35:30;;;;;;;37.05;6.45;;;11.30;99.90;;;;;;5129236;27;20068;-63
2024/01/24 12:38:04;;;;;;;36.63;7.05;;;11.30;99.90;;;;;;5130607;27;20512;-63